createdAt,value
2018-04-20T00:00:18.386Z,10.20
2018-04-20T00:01:18.365Z,8.40
2018-04-20T00:02:18.344Z,9.90
2018-04-20T00:03:18.324Z,7.50
2018-04-20T00:04:18.302Z,7.60
2018-04-20T00:05:18.282Z,7.50
2018-04-20T00:06:18.260Z,10.90
2018-04-20T00:07:18.240Z,6.50
2018-04-20T00:08:18.220Z,8.80
2018-04-20T00:09:18.198Z,8.70
2018-04-20T00:10:18.178Z,7.60
2018-04-20T00:11:18.159Z,7.90
2018-04-20T00:12:18.137Z,8.00
2018-04-20T00:13:18.114Z,9.70
2018-04-20T00:14:18.094Z,8.50
2018-04-20T00:15:18.074Z,8.50
2018-04-20T00:16:18.053Z,7.10
2018-04-20T00:17:18.031Z,7.60
2018-04-20T00:18:18.011Z,7.60
2018-04-20T00:19:17.990Z,9.70
2018-04-20T00:20:17.969Z,7.80
2018-04-20T00:21:17.946Z,8.70
2018-04-20T00:22:17.925Z,9.40
2018-04-20T00:23:17.905Z,7.70
2018-04-20T00:24:17.888Z,9.40
2018-04-20T00:25:17.863Z,7.60
2018-04-20T00:26:17.842Z,8.60
2018-04-20T00:27:17.822Z,8.00
2018-04-20T00:28:17.802Z,7.20
2018-04-20T00:29:17.780Z,7.40
2018-04-20T00:30:17.759Z,6.70
2018-04-20T00:31:17.738Z,8.90
2018-04-20T00:32:17.718Z,9.00
2018-04-20T00:33:17.697Z,9.00
2018-04-20T00:34:17.674Z,8.20
2018-04-20T00:35:17.654Z,8.70
2018-04-20T00:36:17.634Z,7.20
2018-04-20T00:37:18.362Z,11.70
2018-04-20T00:38:17.591Z,10.00
2018-04-20T00:39:17.570Z,7.10
2018-04-20T00:40:17.548Z,10.90
2018-04-20T00:41:17.528Z,10.80
2018-04-20T00:42:17.506Z,8.80
2018-04-20T00:43:17.486Z,12.40
2018-04-20T00:44:17.465Z,7.60
2018-04-20T00:45:17.519Z,11.30
2018-04-20T00:46:17.422Z,9.90
2018-04-20T00:47:17.402Z,10.00
2018-04-20T00:48:17.382Z,11.30
2018-04-20T00:49:17.358Z,9.80
2018-04-20T00:50:17.337Z,9.50
2018-04-20T00:51:17.316Z,9.70
2018-04-20T00:52:17.296Z,9.10
2018-04-20T00:53:17.274Z,10.10
2018-04-20T00:54:17.252Z,14.10
2018-04-20T00:55:17.233Z,14.00
2018-04-20T00:56:17.211Z,12.50
2018-04-20T00:57:17.189Z,13.90
2018-04-20T00:58:17.169Z,7.40
2018-04-20T00:59:17.147Z,11.40
2018-04-20T01:00:17.127Z,12.00
2018-04-20T01:01:17.112Z,7.80
2018-04-20T01:02:17.083Z,9.30
2018-04-20T01:03:17.063Z,8.30
2018-04-20T01:04:17.043Z,8.60
2018-04-20T01:05:17.024Z,10.50
2018-04-20T01:06:17.004Z,9.20
2018-04-20T01:07:16.982Z,11.20
2018-04-20T01:08:16.958Z,10.00
2018-04-20T01:09:16.937Z,9.90
2018-04-20T01:10:16.916Z,8.20
2018-04-20T01:11:16.893Z,9.50
2018-04-20T01:12:16.875Z,12.20
2018-04-20T01:13:16.852Z,9.30
2018-04-20T01:14:16.830Z,8.80
2018-04-20T01:15:16.810Z,12.00
2018-04-20T01:16:16.789Z,13.50
2018-04-20T01:17:16.767Z,12.80
2018-04-20T01:18:16.746Z,9.90
2018-04-20T01:19:16.725Z,13.10
2018-04-20T01:20:16.706Z,11.50
2018-04-20T01:21:16.684Z,11.10
2018-04-20T01:22:16.663Z,12.00
2018-04-20T01:23:16.642Z,10.40
2018-04-20T01:24:16.623Z,10.50
2018-04-20T01:25:16.600Z,11.30
2018-04-20T01:26:16.581Z,10.40
2018-04-20T01:27:16.559Z,11.80
2018-04-20T01:28:16.537Z,10.50
2018-04-20T01:29:16.516Z,11.00
2018-04-20T01:30:16.494Z,9.20
2018-04-20T01:31:16.474Z,10.20
2018-04-20T01:32:16.452Z,11.20
2018-04-20T01:33:16.432Z,10.80
2018-04-20T01:34:16.411Z,10.70
2018-04-20T01:35:16.395Z,12.00
2018-04-20T01:36:16.371Z,10.30
2018-04-20T01:37:16.349Z,9.60
2018-04-20T01:38:16.327Z,12.70
2018-04-20T01:39:16.305Z,9.20
2018-04-20T01:40:16.286Z,11.20
2018-04-20T01:41:16.263Z,13.90
2018-04-20T01:42:16.243Z,11.40
2018-04-20T01:43:16.222Z,14.30
2018-04-20T01:44:16.200Z,9.60
2018-04-20T01:45:16.179Z,11.50
2018-04-20T01:46:16.157Z,11.10
2018-04-20T01:47:16.137Z,10.90
2018-04-20T01:48:16.116Z,10.90
2018-04-20T01:49:16.095Z,12.90
2018-04-20T01:50:16.083Z,10.30
2018-04-20T01:51:16.053Z,10.40
2018-04-20T01:52:16.032Z,11.50
2018-04-20T01:53:16.012Z,11.20
2018-04-20T01:54:15.989Z,11.50
2018-04-20T01:55:15.968Z,10.50
2018-04-20T01:56:15.946Z,11.20
2018-04-20T01:57:15.924Z,9.40
2018-04-20T01:58:15.904Z,11.60
2018-04-20T01:59:15.883Z,14.00
2018-04-20T02:00:15.860Z,12.00
2018-04-20T02:01:15.840Z,12.90
2018-04-20T02:02:15.818Z,14.10
2018-04-20T02:03:15.798Z,13.90
2018-04-20T02:04:15.776Z,12.10
2018-04-20T02:05:15.755Z,12.00
2018-04-20T02:06:15.735Z,12.20
2018-04-20T02:07:15.713Z,11.00
2018-04-20T02:08:15.695Z,10.50
2018-04-20T02:09:15.671Z,13.90
2018-04-20T02:10:15.650Z,11.10
2018-04-20T02:11:15.628Z,9.50
2018-04-20T02:12:15.614Z,13.40
2018-04-20T02:13:15.651Z,10.80
2018-04-20T02:14:15.564Z,11.50
2018-04-20T02:15:15.542Z,12.80
2018-04-20T02:16:15.522Z,10.90
2018-04-20T02:17:15.499Z,12.30
2018-04-20T02:18:15.480Z,14.60
2018-04-20T02:19:15.458Z,11.00
2018-04-20T02:20:15.439Z,10.20
2018-04-20T02:21:15.415Z,9.60
2018-04-20T02:22:15.394Z,11.10
2018-04-20T02:23:15.371Z,9.80
2018-04-20T02:24:15.350Z,11.20
2018-04-20T02:25:15.328Z,10.20
2018-04-20T02:26:15.308Z,11.20
2018-04-20T02:27:15.286Z,9.80
2018-04-20T02:28:15.266Z,10.20
2018-04-20T02:29:15.244Z,10.60
2018-04-20T02:30:15.222Z,9.70
2018-04-20T02:31:15.201Z,12.50
2018-04-20T02:32:15.191Z,10.60
2018-04-20T02:33:15.156Z,10.90
2018-04-20T02:34:15.136Z,9.10
2018-04-20T02:35:15.113Z,11.00
2018-04-20T02:36:15.120Z,11.90
2018-04-20T02:37:15.073Z,11.50
2018-04-20T02:38:15.048Z,9.10
2018-04-20T02:39:15.027Z,11.10
2018-04-20T02:40:15.006Z,13.80
2018-04-20T02:41:14.983Z,10.00
2018-04-20T02:42:14.964Z,12.30
2018-04-20T02:43:14.940Z,13.10
2018-04-20T02:44:14.919Z,15.50
2018-04-20T02:45:14.897Z,11.70
2018-04-20T02:46:14.874Z,10.50
2018-04-20T02:47:14.856Z,10.90
2018-04-20T02:48:14.832Z,13.40
2018-04-20T02:49:14.810Z,10.00
2018-04-20T02:50:14.789Z,12.20
2018-04-20T02:51:14.765Z,10.70
2018-04-20T02:52:14.745Z,10.70
2018-04-20T02:53:14.723Z,9.70
2018-04-20T02:54:14.702Z,10.20
2018-04-20T02:55:14.680Z,7.90
2018-04-20T02:56:14.658Z,9.40
2018-04-20T02:57:14.637Z,9.30
2018-04-20T02:58:14.613Z,8.40
2018-04-20T02:59:14.595Z,8.30
2018-04-20T03:00:14.570Z,7.90
2018-04-20T03:01:14.549Z,9.10
2018-04-20T03:02:14.527Z,9.30
2018-04-20T03:03:14.505Z,8.00
2018-04-20T03:04:14.484Z,8.30
2018-04-20T03:05:14.460Z,9.20
2018-04-20T03:06:14.443Z,7.70
2018-04-20T03:07:14.424Z,11.30
2018-04-20T03:08:14.400Z,10.80
2018-04-20T03:09:14.375Z,8.80
2018-04-20T03:10:14.351Z,11.00
2018-04-20T03:11:14.328Z,8.90
2018-04-20T03:12:14.307Z,9.00
2018-04-20T03:13:14.288Z,9.30
2018-04-20T03:14:15.763Z,12.20
2018-04-20T03:15:14.241Z,9.40
2018-04-20T03:16:14.221Z,8.90
2018-04-20T03:17:14.197Z,9.20
2018-04-20T03:18:14.177Z,7.70
2018-04-20T03:19:14.154Z,11.00
2018-04-20T03:20:14.134Z,9.10
2018-04-20T03:21:14.112Z,9.30
2018-04-20T03:22:14.090Z,9.10
2018-04-20T03:23:14.069Z,8.20
2018-04-20T03:24:14.046Z,12.30
2018-04-20T03:25:14.024Z,10.70
2018-04-20T03:26:14.002Z,7.00
2018-04-20T03:27:13.981Z,7.20
2018-04-20T03:28:13.958Z,11.60
2018-04-20T03:29:13.936Z,8.60
2018-04-20T03:30:13.916Z,8.30
2018-04-20T03:31:13.893Z,9.70
2018-04-20T03:32:13.872Z,8.40
2018-04-20T03:33:13.848Z,7.80
2018-04-20T03:34:13.826Z,7.30
2018-04-20T03:35:13.807Z,8.70
2018-04-20T03:36:13.784Z,9.90
2018-04-20T03:37:13.761Z,8.90
2018-04-20T03:38:13.741Z,6.80
2018-04-20T03:39:13.717Z,9.10
2018-04-20T03:40:13.696Z,9.70
2018-04-20T03:41:13.674Z,8.10
2018-04-20T03:42:13.653Z,7.50
2018-04-20T03:43:13.631Z,7.80
2018-04-20T03:44:13.609Z,9.30
2018-04-20T03:45:13.588Z,8.40
2018-04-20T03:46:13.568Z,9.20
2018-04-20T03:47:13.546Z,9.30
2018-04-20T03:48:13.522Z,11.10
2018-04-20T03:49:13.498Z,8.90
2018-04-20T03:50:13.478Z,10.20
2018-04-20T03:51:13.456Z,8.90
2018-04-20T03:52:13.432Z,9.00
2018-04-20T03:53:13.414Z,7.30
2018-04-20T03:54:13.388Z,9.00
2018-04-20T03:55:13.366Z,10.00
2018-04-20T03:56:13.348Z,9.60
2018-04-20T03:57:13.322Z,9.20
2018-04-20T03:58:13.301Z,9.70
2018-04-20T03:59:13.277Z,8.50
2018-04-20T04:00:13.260Z,7.80
2018-04-20T04:01:13.235Z,9.80
2018-04-20T04:02:13.211Z,7.80
2018-04-20T04:03:13.190Z,10.20
2018-04-20T04:04:13.175Z,8.80
2018-04-20T04:05:13.148Z,10.70
2018-04-20T04:06:13.124Z,9.40
2018-04-20T04:07:13.105Z,8.90
2018-04-20T04:08:13.083Z,10.50
2018-04-20T04:09:13.059Z,11.10
2018-04-20T04:10:13.036Z,7.60
2018-04-20T04:11:13.013Z,8.90
2018-04-20T04:12:13.051Z,8.80
2018-04-20T04:13:12.967Z,12.40
2018-04-20T04:14:12.948Z,8.40
2018-04-20T04:15:12.925Z,13.10
2018-04-20T04:16:12.902Z,9.10
2018-04-20T04:17:12.880Z,9.60
2018-04-20T04:18:12.858Z,11.30
2018-04-20T04:19:12.839Z,11.10
2018-04-20T04:20:12.814Z,11.80
2018-04-20T04:21:12.790Z,12.80
2018-04-20T04:22:12.768Z,10.10
2018-04-20T04:23:12.747Z,10.50
2018-04-20T04:24:12.724Z,11.40
2018-04-20T04:25:12.701Z,10.40
2018-04-20T04:26:12.679Z,11.80
2018-04-20T04:27:12.656Z,10.60
2018-04-20T04:28:12.635Z,10.60
2018-04-20T04:29:14.867Z,12.70
2018-04-20T04:30:12.592Z,11.80
2018-04-20T04:31:12.571Z,10.80
2018-04-20T04:32:12.547Z,13.30
2018-04-20T04:33:12.524Z,11.60
2018-04-20T04:34:12.502Z,9.70
2018-04-20T04:35:12.480Z,14.10
2018-04-20T04:36:12.458Z,11.60
2018-04-20T04:37:12.435Z,11.20
2018-04-20T04:38:12.412Z,11.30
2018-04-20T04:39:12.392Z,11.10
2018-04-20T04:40:12.370Z,13.80
2018-04-20T04:41:12.347Z,11.60
2018-04-20T04:42:12.325Z,11.80
2018-04-20T04:43:12.301Z,12.00
2018-04-20T04:44:12.282Z,11.40
2018-04-20T04:45:12.257Z,11.90
2018-04-20T04:46:12.236Z,13.30
2018-04-20T04:47:12.225Z,11.60
2018-04-20T04:48:12.193Z,14.20
2018-04-20T04:49:12.170Z,11.60
2018-04-20T04:50:12.148Z,11.40
2018-04-20T04:51:12.125Z,13.30
2018-04-20T04:52:12.103Z,12.20
2018-04-20T04:53:12.082Z,13.60
2018-04-20T04:54:12.065Z,14.70
2018-04-20T04:55:12.038Z,11.80
2018-04-20T04:56:12.046Z,13.60
2018-04-20T04:57:11.995Z,11.70
2018-04-20T04:58:11.972Z,12.00
2018-04-20T04:59:11.949Z,13.00
2018-04-20T05:00:11.929Z,10.70
2018-04-20T05:01:11.905Z,11.60
2018-04-20T05:02:11.883Z,12.90
2018-04-20T05:03:11.865Z,12.90
2018-04-20T05:04:11.840Z,11.80
2018-04-20T05:05:11.817Z,14.50
2018-04-20T05:06:11.796Z,15.20
2018-04-20T05:07:11.774Z,11.70
2018-04-20T05:08:11.753Z,12.50
2018-04-20T05:09:11.786Z,11.80
2018-04-20T05:10:11.709Z,13.10
2018-04-20T05:11:11.687Z,13.90
2018-04-20T05:12:11.664Z,11.90
2018-04-20T05:13:11.642Z,12.20
2018-04-20T05:14:11.624Z,13.80
2018-04-20T05:15:11.599Z,14.30
2018-04-20T05:16:11.576Z,10.70
2018-04-20T05:17:11.557Z,11.40
2018-04-20T05:18:11.533Z,11.00
2018-04-20T05:19:11.511Z,11.80
2018-04-20T05:20:11.490Z,13.30
2018-04-20T05:21:11.466Z,12.10
2018-04-20T05:22:11.445Z,14.20
2018-04-20T05:23:11.423Z,13.10
2018-04-20T05:24:11.403Z,14.40
2018-04-20T05:25:11.380Z,14.80
2018-04-20T05:26:11.359Z,14.50
2018-04-20T05:27:11.336Z,13.60
2018-04-20T05:28:11.315Z,18.70
2018-04-20T05:29:11.292Z,14.80
2018-04-20T05:30:11.270Z,12.90
2018-04-20T05:31:11.251Z,13.70
2018-04-20T05:32:11.226Z,16.80
2018-04-20T05:33:11.203Z,15.00
2018-04-20T05:34:11.183Z,16.80
2018-04-20T05:35:11.164Z,13.40
2018-04-20T05:36:11.142Z,13.70
2018-04-20T05:37:11.127Z,15.10
2018-04-20T05:38:11.096Z,14.90
2018-04-20T05:39:11.074Z,12.80
2018-04-20T05:40:11.056Z,16.10
2018-04-20T05:41:11.032Z,20.60
2018-04-20T05:42:11.012Z,14.20
2018-04-20T05:43:10.989Z,15.80
2018-04-20T05:44:10.969Z,13.70
2018-04-20T05:45:10.946Z,15.10
2018-04-20T05:46:10.922Z,14.10
2018-04-20T05:47:10.901Z,13.00
2018-04-20T05:48:10.882Z,16.60
2018-04-20T05:49:10.858Z,15.40
2018-04-20T05:50:10.837Z,17.50
2018-04-20T05:51:10.815Z,13.20
2018-04-20T05:52:10.793Z,17.70
2018-04-20T05:53:10.772Z,15.30
2018-04-20T05:54:10.751Z,13.70
2018-04-20T05:55:10.729Z,13.60
2018-04-20T05:56:10.707Z,13.50
2018-04-20T05:57:10.685Z,17.90
2018-04-20T05:58:10.663Z,14.10
2018-04-20T05:59:10.643Z,17.50
2018-04-20T06:00:10.622Z,16.60
2018-04-20T06:01:10.696Z,14.30
2018-04-20T06:02:10.578Z,14.50
2018-04-20T06:03:10.558Z,19.30
2018-04-20T06:04:10.542Z,18.20
2018-04-20T06:05:10.516Z,21.30
2018-04-20T06:06:10.493Z,22.60
2018-04-20T06:07:10.471Z,16.10
2018-04-20T06:08:10.451Z,15.00
2018-04-20T06:09:10.429Z,19.70
2018-04-20T06:10:10.410Z,17.40
2018-04-20T06:11:10.386Z,15.00
2018-04-20T06:12:10.366Z,13.00
2018-04-20T06:13:10.345Z,13.70
2018-04-20T06:14:10.362Z,14.00
2018-04-20T06:15:10.303Z,15.90
2018-04-20T06:16:10.281Z,15.60
2018-04-20T06:17:10.260Z,13.20
2018-04-20T06:18:10.238Z,16.70
2018-04-20T06:19:10.219Z,15.40
2018-04-20T06:20:10.197Z,12.70
2018-04-20T06:21:10.177Z,12.80
2018-04-20T06:22:10.155Z,16.70
2018-04-20T06:23:10.133Z,15.60
2018-04-20T06:24:10.113Z,13.80
2018-04-20T06:25:10.090Z,15.20
2018-04-20T06:26:10.070Z,14.90
2018-04-20T06:27:10.050Z,16.10
2018-04-20T06:28:10.030Z,15.50
2018-04-20T06:29:10.010Z,14.60
2018-04-20T06:30:09.988Z,18.50
2018-04-20T06:31:13.720Z,11.50
2018-04-20T06:32:09.945Z,16.30
2018-04-20T06:33:09.924Z,15.10
2018-04-20T06:34:09.902Z,13.80
2018-04-20T06:35:09.881Z,12.60
2018-04-20T06:36:09.862Z,15.80
2018-04-20T06:37:09.839Z,11.60
2018-04-20T06:38:09.820Z,13.00
2018-04-20T06:39:09.798Z,13.80
2018-04-20T06:40:09.778Z,15.00
2018-04-20T06:41:09.756Z,12.00
2018-04-20T06:42:09.737Z,13.00
2018-04-20T06:43:09.717Z,11.80
2018-04-20T06:44:09.695Z,16.70
2018-04-20T06:45:09.673Z,11.40
2018-04-20T06:46:09.657Z,13.60
2018-04-20T06:47:09.633Z,16.20
2018-04-20T06:48:09.613Z,12.80
2018-04-20T06:49:09.592Z,14.20
2018-04-20T06:50:09.575Z,12.10
2018-04-20T06:51:09.552Z,12.40
2018-04-20T06:52:09.532Z,13.10
2018-04-20T06:53:09.510Z,13.90
2018-04-20T06:54:09.490Z,12.40
2018-04-20T06:55:09.469Z,14.90
2018-04-20T06:56:09.449Z,11.60
2018-04-20T06:57:09.428Z,14.90
2018-04-20T06:58:13.161Z,13.60
2018-04-20T06:59:09.387Z,11.50
2018-04-20T07:00:09.368Z,15.10
2018-04-20T07:01:09.346Z,12.60
2018-04-20T07:02:09.326Z,13.20
2018-04-20T07:03:09.308Z,10.70
2018-04-20T07:04:09.291Z,12.10
2018-04-20T07:05:09.265Z,12.40
2018-04-20T07:06:09.246Z,14.70
2018-04-20T07:07:09.226Z,14.50
2018-04-20T07:08:09.206Z,15.90
2018-04-20T07:09:09.185Z,12.10
2018-04-20T07:10:09.166Z,12.20
2018-04-20T07:11:09.145Z,15.20
2018-04-20T07:12:09.137Z,11.80
2018-04-20T07:13:09.103Z,12.20
2018-04-20T07:14:09.085Z,12.40
2018-04-20T07:15:09.067Z,9.50
2018-04-20T07:16:09.045Z,15.00
2018-04-20T07:17:09.031Z,12.30
2018-04-20T07:18:09.004Z,16.30
2018-04-20T07:19:08.983Z,12.70
2018-04-20T07:20:08.970Z,15.20
2018-04-20T07:21:08.944Z,17.10
2018-04-20T07:22:08.925Z,15.10
2018-04-20T07:23:08.904Z,10.90
2018-04-20T07:24:08.885Z,13.60
2018-04-20T07:25:08.864Z,13.90
2018-04-20T07:26:09.596Z,10.10
2018-04-20T07:27:08.824Z,13.60
2018-04-20T07:28:08.806Z,11.10
2018-04-20T07:29:08.785Z,11.40
2018-04-20T07:30:08.841Z,11.60
2018-04-20T07:31:08.745Z,13.00
2018-04-20T07:32:08.725Z,10.80
2018-04-20T07:33:08.708Z,13.60
2018-04-20T07:34:08.685Z,13.90
2018-04-20T07:35:08.665Z,12.90
2018-04-20T07:36:08.651Z,16.30
2018-04-20T07:37:08.627Z,13.50
2018-04-20T07:38:08.607Z,16.10
2018-04-20T07:39:08.592Z,15.50
2018-04-20T07:40:08.567Z,12.10
2018-04-20T07:41:08.547Z,13.30
2018-04-20T07:42:08.529Z,15.90
2018-04-20T07:43:08.510Z,10.30
2018-04-20T07:44:08.489Z,15.50
2018-04-20T07:45:08.471Z,14.10
2018-04-20T07:46:08.449Z,13.80
2018-04-20T07:47:08.430Z,14.90
2018-04-20T07:48:09.163Z,13.90
2018-04-20T07:49:08.390Z,13.20
2018-04-20T07:50:08.373Z,11.70
2018-04-20T07:51:08.352Z,11.50
2018-04-20T07:52:08.334Z,11.10
2018-04-20T07:53:08.314Z,10.30
2018-04-20T07:54:08.298Z,12.50
2018-04-20T07:55:08.276Z,11.80
2018-04-20T07:56:08.258Z,12.20
2018-04-20T07:57:08.238Z,8.60
2018-04-20T07:58:08.218Z,12.50
2018-04-20T07:59:08.199Z,11.40
2018-04-20T08:00:08.181Z,12.00
2018-04-20T08:01:08.161Z,12.00
2018-04-20T08:02:08.141Z,16.50
2018-04-20T08:03:08.170Z,13.90
2018-04-20T08:04:08.105Z,15.30
2018-04-20T08:05:08.088Z,15.20
2018-04-20T08:06:08.066Z,12.40
2018-04-20T08:07:08.048Z,14.20
2018-04-20T08:08:08.029Z,16.90
2018-04-20T08:09:08.008Z,13.10
2018-04-20T08:10:07.991Z,16.10
2018-04-20T08:11:07.971Z,16.10
2018-04-20T08:12:07.953Z,14.10
2018-04-20T08:13:07.932Z,12.70
2018-04-20T08:14:07.915Z,17.00
2018-04-20T08:15:07.895Z,14.70
2018-04-20T08:16:07.878Z,12.90
2018-04-20T08:17:07.858Z,16.20
2018-04-20T08:18:07.838Z,15.30
2018-04-20T08:19:07.824Z,15.50
2018-04-20T08:20:13.828Z,16.30
2018-04-20T08:21:07.782Z,17.30
2018-04-20T08:22:07.764Z,15.30
2018-04-20T08:23:07.746Z,13.20
2018-04-20T08:24:07.728Z,15.10
2018-04-20T08:25:07.709Z,14.80
2018-04-20T08:26:07.691Z,11.60
2018-04-20T08:27:07.673Z,11.50
2018-04-20T08:28:07.655Z,13.70
2018-04-20T08:29:07.635Z,13.30
2018-04-20T08:30:07.616Z,13.80
2018-04-20T08:31:07.598Z,10.70
2018-04-20T08:32:07.585Z,14.10
2018-04-20T08:33:07.562Z,16.90
2018-04-20T08:34:07.546Z,14.30
2018-04-20T08:35:07.524Z,14.50
2018-04-20T08:36:07.509Z,14.30
2018-04-20T08:37:07.489Z,15.50
2018-04-20T08:38:07.473Z,18.40
2018-04-20T08:39:07.451Z,12.20
2018-04-20T08:40:07.438Z,15.60
2018-04-20T08:41:07.415Z,15.00
2018-04-20T08:42:07.409Z,13.70
2018-04-20T08:43:07.378Z,12.20
2018-04-20T08:44:07.360Z,19.00
2018-04-20T08:45:07.341Z,10.10
2018-04-20T08:46:07.324Z,14.10
2018-04-20T08:47:09.558Z,14.80
2018-04-20T08:48:07.290Z,11.00
2018-04-20T08:49:07.270Z,12.20
2018-04-20T08:50:07.251Z,13.70
2018-04-20T08:51:07.233Z,12.40
2018-04-20T08:52:07.216Z,11.10
2018-04-20T08:53:07.198Z,13.90
2018-04-20T08:54:07.180Z,13.30
2018-04-20T08:55:07.161Z,13.10
2018-04-20T08:56:07.145Z,16.50
2018-04-20T08:57:07.125Z,16.50
2018-04-20T08:58:07.107Z,15.20
2018-04-20T08:59:07.092Z,14.20
2018-04-20T09:00:07.073Z,14.50
2018-04-20T09:01:07.053Z,12.50
2018-04-20T09:02:07.036Z,13.60
2018-04-20T09:03:07.023Z,16.80
2018-04-20T09:04:07.001Z,16.20
2018-04-20T09:05:06.984Z,15.70
2018-04-20T09:06:06.964Z,16.30
2018-04-20T09:07:06.948Z,15.20
2018-04-20T09:08:06.930Z,11.50
2018-04-20T09:09:06.916Z,15.00
2018-04-20T09:10:06.894Z,14.30
2018-04-20T09:11:06.876Z,14.30
2018-04-20T09:12:06.860Z,17.10
2018-04-20T09:13:06.843Z,16.00
2018-04-20T09:14:06.828Z,18.20
2018-04-20T09:15:06.807Z,15.90
2018-04-20T09:16:06.790Z,14.70
2018-04-20T09:17:06.772Z,19.20
2018-04-20T09:18:06.757Z,16.00
2018-04-20T09:19:06.739Z,11.70
2018-04-20T09:20:06.722Z,13.00
2018-04-20T09:21:06.702Z,11.10
2018-04-20T09:22:06.689Z,16.90
2018-04-20T09:23:06.669Z,12.90
2018-04-20T09:24:06.651Z,14.80
2018-04-20T09:25:06.633Z,14.60
2018-04-20T09:26:06.618Z,13.40
2018-04-20T09:27:06.601Z,11.50
2018-04-20T09:28:06.586Z,14.60
2018-04-20T09:29:06.566Z,10.00
2018-04-20T09:30:07.299Z,10.70
2018-04-20T09:31:06.531Z,12.60
2018-04-20T09:32:06.515Z,10.20
2018-04-20T09:33:06.497Z,10.50
2018-04-20T09:34:06.481Z,12.70
2018-04-20T09:35:06.464Z,15.50
2018-04-20T09:36:06.447Z,9.70
2018-04-20T09:37:06.428Z,11.80
2018-04-20T09:38:06.412Z,12.40
2018-04-20T09:39:06.396Z,11.90
2018-04-20T09:40:06.379Z,12.40
2018-04-20T09:41:06.362Z,9.10
2018-04-20T09:42:06.343Z,10.10
2018-04-20T09:43:06.327Z,12.30
2018-04-20T09:44:06.309Z,10.60
2018-04-20T09:45:06.291Z,9.60
2018-04-20T09:46:06.276Z,10.30
2018-04-20T09:47:06.259Z,14.40
2018-04-20T09:48:06.241Z,10.00
2018-04-20T09:49:06.224Z,12.70
2018-04-20T09:50:06.207Z,15.30
2018-04-20T09:51:06.190Z,16.50
2018-04-20T09:52:06.176Z,12.30
2018-04-20T09:53:06.158Z,15.20
2018-04-20T09:54:06.141Z,11.90
2018-04-20T09:55:06.123Z,11.60
2018-04-20T09:56:09.861Z,14.70
2018-04-20T09:57:06.094Z,12.70
2018-04-20T09:58:06.074Z,10.20
2018-04-20T09:59:06.058Z,11.20
2018-04-20T10:00:06.042Z,12.10
2018-04-20T10:01:06.023Z,11.80
2018-04-20T10:02:06.010Z,11.00
2018-04-20T10:03:05.991Z,12.20
2018-04-20T10:04:05.977Z,11.80
2018-04-20T10:05:05.957Z,8.90
2018-04-20T10:06:05.941Z,13.60
2018-04-20T10:07:05.925Z,10.50
2018-04-20T10:08:05.910Z,11.80
2018-04-20T10:09:05.892Z,10.00
2018-04-20T10:10:05.882Z,9.50
2018-04-20T10:11:05.861Z,11.20
2018-04-20T10:12:05.845Z,8.60
2018-04-20T10:13:05.827Z,11.30
2018-04-20T10:14:05.812Z,11.80
2018-04-20T10:15:05.796Z,12.60
2018-04-20T10:16:05.779Z,9.60
2018-04-20T10:17:05.765Z,9.30
2018-04-20T10:18:05.747Z,11.30
2018-04-20T10:19:05.791Z,9.90
2018-04-20T10:20:05.714Z,13.70
2018-04-20T10:21:05.698Z,11.70
2018-04-20T10:22:05.681Z,9.30
2018-04-20T10:23:05.664Z,10.90
2018-04-20T10:24:05.648Z,13.30
2018-04-20T10:25:05.634Z,10.50
2018-04-20T10:26:05.617Z,9.30
2018-04-20T10:27:05.602Z,12.30
2018-04-20T10:28:06.336Z,10.60
2018-04-20T10:29:05.569Z,8.70
2018-04-20T10:30:05.553Z,14.30
2018-04-20T10:31:05.541Z,9.20
2018-04-20T10:32:05.520Z,10.20
2018-04-20T10:33:05.527Z,8.90
2018-04-20T10:34:05.495Z,10.30
2018-04-20T10:35:05.472Z,8.70
2018-04-20T10:36:05.457Z,9.10
2018-04-20T10:37:05.439Z,6.90
2018-04-20T10:38:05.424Z,8.60
2018-04-20T10:39:05.409Z,9.30
2018-04-20T10:40:05.396Z,8.50
2018-04-20T10:41:05.416Z,10.60
2018-04-20T10:42:05.360Z,11.70
2018-04-20T10:43:05.347Z,8.00
2018-04-20T10:44:05.329Z,10.10
2018-04-20T10:45:05.311Z,8.20
2018-04-20T10:46:05.297Z,9.70
2018-04-20T10:47:05.280Z,9.20
2018-04-20T10:48:05.267Z,6.70
2018-04-20T10:49:05.248Z,10.20
2018-04-20T10:50:05.233Z,6.70
2018-04-20T10:51:05.218Z,9.80
2018-04-20T10:52:05.206Z,8.10
2018-04-20T10:53:05.189Z,9.40
2018-04-20T10:54:05.169Z,9.50
2018-04-20T10:55:05.154Z,9.60
2018-04-20T10:56:05.139Z,8.70
2018-04-20T10:57:05.121Z,12.50
2018-04-20T10:58:05.106Z,10.10
2018-04-20T10:59:05.092Z,13.00
2018-04-20T11:00:05.076Z,7.10
2018-04-20T11:01:05.064Z,10.40
2018-04-20T11:02:05.045Z,10.30
2018-04-20T11:03:05.028Z,8.10
2018-04-20T11:04:05.013Z,9.30
2018-04-20T11:05:04.996Z,8.30
2018-04-20T11:06:04.982Z,8.00
2018-04-20T11:07:04.966Z,9.80
2018-04-20T11:08:04.950Z,11.70
2018-04-20T11:09:04.935Z,9.80
2018-04-20T11:10:04.918Z,11.20
2018-04-20T11:11:04.903Z,8.40
2018-04-20T11:12:04.889Z,8.70
2018-04-20T11:13:04.872Z,9.40
2018-04-20T11:14:04.857Z,8.90
2018-04-20T11:15:04.846Z,14.60
2018-04-20T11:16:04.828Z,8.30
2018-04-20T11:17:04.810Z,11.40
2018-04-20T11:18:04.796Z,12.50
2018-04-20T11:19:04.780Z,14.40
2018-04-20T11:20:04.766Z,10.00
2018-04-20T11:21:04.749Z,9.80
2018-04-20T11:22:04.735Z,10.50
2018-04-20T11:23:04.719Z,10.90
2018-04-20T11:24:04.704Z,8.90
2018-04-20T11:25:04.689Z,11.40
2018-04-20T11:26:04.677Z,12.50
2018-04-20T11:27:04.660Z,13.70
2018-04-20T11:28:04.644Z,10.80
2018-04-20T11:29:04.628Z,7.30
2018-04-20T11:30:04.664Z,9.70
2018-04-20T11:31:04.600Z,11.40
2018-04-20T11:32:04.584Z,9.20
2018-04-20T11:33:04.570Z,9.50
2018-04-20T11:34:04.555Z,12.30
2018-04-20T11:35:04.539Z,10.90
2018-04-20T11:36:04.526Z,9.40
2018-04-20T11:37:04.510Z,14.00
2018-04-20T11:38:04.494Z,10.80
2018-04-20T11:39:04.481Z,12.70
2018-04-20T11:40:04.466Z,11.10
2018-04-20T11:41:04.450Z,10.90
2018-04-20T11:42:04.436Z,17.20
2018-04-20T11:43:04.423Z,9.00
2018-04-20T11:44:04.408Z,10.20
2018-04-20T11:45:04.398Z,11.10
2018-04-20T11:46:04.380Z,8.10
2018-04-20T11:47:04.364Z,10.90
2018-04-20T11:48:04.350Z,9.50
2018-04-20T11:49:04.334Z,13.70
2018-04-20T11:50:04.322Z,8.30
2018-04-20T11:51:04.307Z,7.20
2018-04-20T11:52:04.293Z,8.80
2018-04-20T11:53:04.277Z,8.40
2018-04-20T11:54:04.293Z,8.50
2018-04-20T11:55:04.248Z,7.50
2018-04-20T11:56:04.235Z,9.90
2018-04-20T11:57:04.221Z,9.70
2018-04-20T11:58:04.205Z,9.20
2018-04-20T11:59:04.193Z,7.50
2018-04-20T12:00:04.179Z,8.10
2018-04-20T12:01:04.162Z,9.60
2018-04-20T12:02:04.148Z,10.00
2018-04-20T12:03:04.135Z,7.80
2018-04-20T12:04:04.120Z,7.20
2018-04-20T12:05:04.106Z,6.70
2018-04-20T12:06:04.091Z,6.70
2018-04-20T12:07:04.077Z,8.20
2018-04-20T12:08:04.063Z,7.10
2018-04-20T12:09:04.048Z,6.30
2018-04-20T12:10:04.035Z,5.90
2018-04-20T12:11:04.020Z,8.00
2018-04-20T12:12:04.008Z,7.80
2018-04-20T12:13:03.993Z,7.90
2018-04-20T12:14:03.977Z,6.60
2018-04-20T12:15:03.965Z,6.30
2018-04-20T12:16:03.951Z,8.70
2018-04-20T12:17:03.936Z,9.00
2018-04-20T12:18:03.922Z,9.20
2018-04-20T12:19:03.908Z,9.30
2018-04-20T12:20:03.894Z,7.10
2018-04-20T12:21:03.880Z,9.00
2018-04-20T12:22:03.868Z,7.90
2018-04-20T12:23:03.857Z,9.30
2018-04-20T12:24:03.842Z,6.30
2018-04-20T12:25:03.829Z,6.80
2018-04-20T12:26:03.812Z,7.30
2018-04-20T12:27:03.798Z,7.20
2018-04-20T12:28:03.784Z,7.80
2018-04-20T12:29:03.772Z,5.20
2018-04-20T12:30:03.758Z,5.40
2018-04-20T12:31:03.743Z,6.00
2018-04-20T12:32:03.730Z,9.10
2018-04-20T12:33:03.715Z,10.50
2018-04-20T12:34:03.702Z,6.20
2018-04-20T12:35:03.689Z,7.20
2018-04-20T12:36:03.678Z,8.00
2018-04-20T12:37:03.660Z,4.70
2018-04-20T12:38:03.648Z,8.10
2018-04-20T12:39:03.677Z,6.00
2018-04-20T12:40:03.621Z,6.50
2018-04-20T12:41:03.607Z,6.30
2018-04-20T12:42:03.594Z,8.00
2018-04-20T12:43:03.584Z,5.30
2018-04-20T12:44:03.598Z,6.10
2018-04-20T12:45:03.554Z,4.00
2018-04-20T12:46:03.538Z,8.70
2018-04-20T12:47:03.525Z,4.80
2018-04-20T12:48:03.512Z,4.90
2018-04-20T12:49:03.498Z,6.00
2018-04-20T12:50:04.235Z,4.70
2018-04-20T12:51:03.473Z,4.80
2018-04-20T12:52:03.459Z,5.50
2018-04-20T12:53:03.448Z,4.50
2018-04-20T12:54:03.441Z,7.60
2018-04-20T12:55:03.420Z,8.10
2018-04-20T12:56:03.406Z,7.90
2018-04-20T12:57:03.394Z,8.50
2018-04-20T12:58:03.381Z,8.50
2018-04-20T12:59:03.367Z,6.40
2018-04-20T13:00:03.354Z,7.20
2018-04-20T13:01:04.091Z,5.40